• Join FlightAware (Why Join?)
  • Login
  • US Flag 
11:50AM EDT


 

Airport Tracker/Info


-or-


 

Live Flight TrackerFlight Track Log ✈ SWA34 ✈ 05-May-2013 ✈ KTUL - KSTL

Flight Track Log - Related Links

Times and Time Zones

All times are in EDT time to prevent confusion due to time zone crossing. See the SWA34 flight status page for this flight to view local times or setup timezone preferences in your user account.

Time Position Orientation Groundspeed Altitude Reporting Facility
EDT Latitude Longitude Course Direction KTS MPH feet Rate Location/Type
06:52PM 36.2303 -95.9314 344° North 216 249 4,100  Level Kansas City Center
06:53PM 36.2558 -95.8681 63° Northeast 241 277 6,600 3,540 Climbing Kansas City Center
06:54PM 36.2928 -95.7875 60° Northeast 260 299 10,600 3,300 Climbing Kansas City Center
06:55PM 36.3356 -95.6931 61° Northeast 302 348 13,500 3,120 Climbing Kansas City Center
06:56PM 36.3969 -95.6008 50° Northeast 333 383 17,100 3,180 Climbing Kansas City Center
06:57PM 36.4608 -95.5097 49° Northeast 344 396 20,100 2,760 Climbing Kansas City Center
06:58PM 36.5222 -95.4042 54° Northeast 375 432 22,900 2,520 Climbing Kansas City Center
06:59PM 36.5725 -95.2817 63° Northeast 394 453 25,300 2,220 Climbing Kansas City Center
07:00PM 36.6297 -95.1428 63° Northeast 411 473 27,500 1,980 Climbing Kansas City Center
07:01PM 36.6847 -95.0086 63° Northeast 427 491 29,500 1,740 Climbing Kansas City Center
07:02PM 36.7414 -94.8694 63° Northeast 440 506 31,200 1,860 Climbing Kansas City Center
07:03PM 36.7994 -94.7289 63° Northeast 451 519 33,400 2,160 Climbing Kansas City Center
07:04PM 36.8669 -94.5633 63° Northeast 447 514 35,700 1,740 Climbing Kansas City Center
07:05PM 36.9231 -94.4269 63° Northeast 443 510 37,000 1,080 Climbing Kansas City Center
07:06PM 36.9800 -94.2867 63° Northeast 449 517 38,000 960 Climbing Kansas City Center
07:07PM 37.0361 -94.1436 64° Northeast 453 521 39,000 480 Climbing Kansas City Center
07:08PM 37.0917 -94.0056 63° Northeast 446 513 39,000  Level Kansas City Center
07:09PM 37.1461 -93.8711 63° Northeast 443 510 39,000  Level Kansas City Center
07:10PM 37.2003 -93.7331 64° Northeast 440 506 39,000  Level Kansas City Center
07:11PM 37.2636 -93.5678 64° Northeast 438 504 39,000  Level Kansas City Center
07:12PM 37.3183 -93.4319 63° Northeast 436 502 39,000  Level Kansas City Center
07:13PM 37.3797 -93.3025 59° Northeast 433 498 39,000  Level Kansas City Center
07:14PM 37.4694 -93.2033 41° Northeast 430 495 39,000 -120 Level Kansas City Center
07:15PM 37.5578 -93.1011 43° Northeast 429 494 38,800 -600 Descending Kansas City Center
07:16PM 37.6472 -92.9981 42° Northeast 432 497 37,800 -960 Descending Kansas City Center
07:18PM 37.8164 -92.7983 43° Northeast 418 481 35,900 -960 Descending Kansas City Center
07:19PM 37.9164 -92.6722 45° Northeast 418 481 35,000 -1,440 Descending Kansas City Center
07:20PM 37.9781 -92.5567 56° Northeast 414 476 33,000 -2,100 Descending Kansas City Center
07:22PM 38.0389 -92.4422 56° Northeast 399 459 30,700 -1,680 Descending Kansas City Center
07:23PM 38.1028 -92.3297 54° Northeast 396 456 29,600 -1,080 Descending Kansas City Center
07:24PM 38.1619 -92.2167 56° Northeast 390 449 28,600 -1,020 Descending Kansas City Center
07:25PM 38.2286 -92.0903 56° Northeast 383 441 27,500 -1,080 Descending Kansas City Center
07:26PM 38.2869 -91.9789 56° Northeast 378 435 26,400 -1,020 Descending Kansas City Center
07:27PM 38.3450 -91.8697 56° Northeast 372 428 25,500 -1,500 Descending Kansas City Center
07:28PM 38.4033 -91.7581 56° Northeast 375 432 23,400 -2,520 Descending Kansas City Center
07:29PM 38.4639 -91.6433 56° Northeast 384 442 20,400 -2,640 Descending Kansas City Center
07:30PM 38.5228 -91.5317 56° Northeast 381 438 18,100 -2,280 Descending Kansas City Center
07:31PM 38.5881 -91.4056 56° Northeast 360 414 15,700 -1,620 Descending Kansas City Center
07:32PM 38.6322 -91.3208 56° Northeast 348 400 14,800 -1,020 Descending Kansas City Center
07:33PM 38.6903 -91.2050 57° Northeast 327 376 13,600 -1,080 Descending Kansas City Center
07:34PM 38.6958 -91.0897 86° East 324 373 12,600 -1,020 Descending Kansas City Center
07:35PM 38.6994 -90.9772 88° East 320 368 11,600 -1,020 Descending Kansas City Center
07:36PM 38.7019 -90.8678 88° East 312 359 10,600 -780 Descending Kansas City Center
07:37PM 38.7050 -90.7672 88° East 299 344 10,000 -540 Descending Kansas City Center
07:38PM 38.7075 -90.6725 88° East 281 323 9,600 -720 Descending Kansas City Center
07:39PM 38.7122 -90.5794 86° East 270 311 8,600 -1,020 Descending Kansas City Center
07:40PM 38.6906 -90.4772 105° East 262 302 7,600 -840 Descending Kansas City Center
07:41PM 38.6558 -90.4083 123° Southeast 247 284 6,900 -840 Descending Kansas City Center
07:42PM 38.6233 -90.3317 118° Southeast 235 270 5,900 -900 Descending Kansas City Center
07:43PM 38.6033 -90.2686 112° Southeast 224 258 5,100 -1,140 Descending Kansas City Center
07:44PM 38.6278 -90.2022 65° Northeast 205 236 3,600 -1,320 Descending Kansas City Center
07:45PM 38.6769 -90.2147 349° North 215 247 2,500 -900 Descending Kansas City Center
07:46PM 38.7061 -90.2744 302° West 208 239 1,800 -780 Descending Kansas City Center
07:47PM 38.7278 -90.3189 302° West 171 197 1,000 -600 Descending Kansas City Center
07:48PM 38.7522 -90.3664 303° West 158 182 600 -420 Descending Kansas City Center